sensor_id;sensor_type;location;lat;lon;timestamp;temperature;humidity
9446;DHT22;4761;49.490;10.908;2023-07-22T00:02:24;24.00;52.50
9446;DHT22;4761;49.490;10.908;2023-07-22T00:04:50;24.00;52.50
9446;DHT22;4761;49.490;10.908;2023-07-22T00:07:17;24.00;53.10
9446;DHT22;4761;49.490;10.908;2023-07-22T00:09:43;24.00;52.50
9446;DHT22;4761;49.490;10.908;2023-07-22T00:12:09;24.00;52.50
9446;DHT22;4761;49.490;10.908;2023-07-22T00:14:40;24.00;52.50
9446;DHT22;4761;49.490;10.908;2023-07-22T00:17:06;24.00;52.50
9446;DHT22;4761;49.490;10.908;2023-07-22T00:19:31;24.00;52.50
9446;DHT22;4761;49.490;10.908;2023-07-22T00:21:57;24.00;52.50
9446;DHT22;4761;49.490;10.908;2023-07-22T00:24:22;24.00;52.50
9446;DHT22;4761;49.490;10.908;2023-07-22T00:26:48;24.00;52.50
9446;DHT22;4761;49.490;10.908;2023-07-22T00:29:15;24.00;52.50
9446;DHT22;4761;49.490;10.908;2023-07-22T00:31:41;24.00;52.50
9446;DHT22;4761;49.490;10.908;2023-07-22T00:34:07;24.00;52.50
9446;DHT22;4761;49.490;10.908;2023-07-22T00:36:32;23.90;52.40
9446;DHT22;4761;49.490;10.908;2023-07-22T00:38:58;23.90;52.40
9446;DHT22;4761;49.490;10.908;2023-07-22T00:41:23;24.00;52.40
9446;DHT22;4761;49.490;10.908;2023-07-22T00:43:49;23.90;52.40
9446;DHT22;4761;49.490;10.908;2023-07-22T00:46:15;24.00;52.40
9446;DHT22;4761;49.490;10.908;2023-07-22T00:48:41;23.90;52.30
9446;DHT22;4761;49.490;10.908;2023-07-22T00:51:07;23.90;52.40
9446;DHT22;4761;49.490;10.908;2023-07-22T00:53:33;23.90;52.30
9446;DHT22;4761;49.490;10.908;2023-07-22T00:55:59;23.90;52.30
9446;DHT22;4761;49.490;10.908;2023-07-22T00:58:24;23.90;52.30
9446;DHT22;4761;49.490;10.908;2023-07-22T01:00:50;23.90;52.30
9446;DHT22;4761;49.490;10.908;2023-07-22T01:03:15;23.90;52.30
9446;DHT22;4761;49.490;10.908;2023-07-22T01:05:41;23.90;52.20
9446;DHT22;4761;49.490;10.908;2023-07-22T01:08:07;23.90;52.20
9446;DHT22;4761;49.490;10.908;2023-07-22T01:10:32;23.90;52.20
9446;DHT22;4761;49.490;10.908;2023-07-22T01:12:58;23.90;52.20
9446;DHT22;4761;49.490;10.908;2023-07-22T01:15:24;23.90;52.20
9446;DHT22;4761;49.490;10.908;2023-07-22T01:17:51;23.90;52.20
9446;DHT22;4761;49.490;10.908;2023-07-22T01:20:16;23.90;52.20
9446;DHT22;4761;49.490;10.908;2023-07-22T01:22:53;24.00;52.20
9446;DHT22;4761;49.490;10.908;2023-07-22T01:25:22;23.90;52.10
9446;DHT22;4761;49.490;10.908;2023-07-22T01:27:48;23.90;52.10
9446;DHT22;4761;49.490;10.908;2023-07-22T01:30:15;23.90;52.20
9446;DHT22;4761;49.490;10.908;2023-07-22T01:32:40;23.90;52.20
9446;DHT22;4761;49.490;10.908;2023-07-22T01:35:07;23.90;52.10
9446;DHT22;4761;49.490;10.908;2023-07-22T01:37:35;23.90;52.20
9446;DHT22;4761;49.490;10.908;2023-07-22T01:40:02;23.90;52.10
9446;DHT22;4761;49.490;10.908;2023-07-22T01:42:41;23.90;52.10
9446;DHT22;4761;49.490;10.908;2023-07-22T01:45:08;23.90;52.10
9446;DHT22;4761;49.490;10.908;2023-07-22T01:47:35;23.90;52.10
9446;DHT22;4761;49.490;10.908;2023-07-22T01:50:01;23.90;52.10
9446;DHT22;4761;49.490;10.908;2023-07-22T01:52:27;23.90;52.20
9446;DHT22;4761;49.490;10.908;2023-07-22T01:54:53;23.90;52.20
9446;DHT22;4761;49.490;10.908;2023-07-22T01:57:18;23.90;52.10
9446;DHT22;4761;49.490;10.908;2023-07-22T01:59:44;23.90;52.10
9446;DHT22;4761;49.490;10.908;2023-07-22T02:02:09;23.90;52.10
9446;DHT22;4761;49.490;10.908;2023-07-22T02:04:35;23.90;52.10
9446;DHT22;4761;49.490;10.908;2023-07-22T02:07:00;23.90;52.10
9446;DHT22;4761;49.490;10.908;2023-07-22T02:09:26;23.90;52.20
9446;DHT22;4761;49.490;10.908;2023-07-22T02:11:52;23.90;52.20
9446;DHT22;4761;49.490;10.908;2023-07-22T02:14:19;23.90;52.20
9446;DHT22;4761;49.490;10.908;2023-07-22T02:16:44;23.90;52.20
9446;DHT22;4761;49.490;10.908;2023-07-22T02:19:10;23.90;52.10
9446;DHT22;4761;49.490;10.908;2023-07-22T02:21:35;23.90;52.10
9446;DHT22;4761;49.490;10.908;2023-07-22T02:24:01;23.80;52.10
9446;DHT22;4761;49.490;10.908;2023-07-22T02:26:27;23.80;52.10
9446;DHT22;4761;49.490;10.908;2023-07-22T02:28:52;23.80;52.10
9446;DHT22;4761;49.490;10.908;2023-07-22T02:31:18;23.80;52.10
9446;DHT22;4761;49.490;10.908;2023-07-22T02:33:43;23.90;52.20
9446;DHT22;4761;49.490;10.908;2023-07-22T02:36:09;23.80;52.10
9446;DHT22;4761;49.490;10.908;2023-07-22T02:38:34;23.90;52.20
9446;DHT22;4761;49.490;10.908;2023-07-22T02:41:04;23.90;52.10
9446;DHT22;4761;49.490;10.908;2023-07-22T02:43:32;23.90;52.20
9446;DHT22;4761;49.490;10.908;2023-07-22T02:45:59;23.90;52.20
9446;DHT22;4761;49.490;10.908;2023-07-22T02:48:25;23.80;52.10
9446;DHT22;4761;49.490;10.908;2023-07-22T02:50:50;23.80;52.10
9446;DHT22;4761;49.490;10.908;2023-07-22T02:53:16;23.80;52.70
9446;DHT22;4761;49.490;10.908;2023-07-22T02:55:41;23.80;52.10
9446;DHT22;4761;49.490;10.908;2023-07-22T02:58:07;23.90;52.40
9446;DHT22;4761;49.490;10.908;2023-07-22T03:00:32;23.80;52.10
9446;DHT22;4761;49.490;10.908;2023-07-22T03:02:58;23.90;52.20
9446;DHT22;4761;49.490;10.908;2023-07-22T03:05:27;23.80;52.20
9446;DHT22;4761;49.490;10.908;2023-07-22T03:07:53;23.80;52.20
9446;DHT22;4761;49.490;10.908;2023-07-22T03:10:19;23.80;52.10
9446;DHT22;4761;49.490;10.908;2023-07-22T03:12:44;23.80;52.10
9446;DHT22;4761;49.490;10.908;2023-07-22T03:15:10;23.80;52.10
9446;DHT22;4761;49.490;10.908;2023-07-22T03:17:39;23.80;52.10
9446;DHT22;4761;49.490;10.908;2023-07-22T03:20:05;23.80;52.10
9446;DHT22;4761;49.490;10.908;2023-07-22T03:22:39;23.80;52.10
9446;DHT22;4761;49.490;10.908;2023-07-22T03:25:04;23.80;52.10
9446;DHT22;4761;49.490;10.908;2023-07-22T03:27:33;23.80;52.10
9446;DHT22;4761;49.490;10.908;2023-07-22T03:29:58;23.80;52.10
9446;DHT22;4761;49.490;10.908;2023-07-22T03:32:24;23.80;52.10
9446;DHT22;4761;49.490;10.908;2023-07-22T03:34:50;23.80;52.10
9446;DHT22;4761;49.490;10.908;2023-07-22T03:37:15;23.80;52.10
9446;DHT22;4761;49.490;10.908;2023-07-22T03:39:41;23.80;52.10
9446;DHT22;4761;49.490;10.908;2023-07-22T03:42:06;23.80;52.10
9446;DHT22;4761;49.490;10.908;2023-07-22T03:44:32;23.80;52.10
9446;DHT22;4761;49.490;10.908;2023-07-22T03:46:57;23.80;52.10
9446;DHT22;4761;49.490;10.908;2023-07-22T03:49:23;23.80;52.10
9446;DHT22;4761;49.490;10.908;2023-07-22T03:51:48;23.80;52.10
9446;DHT22;4761;49.490;10.908;2023-07-22T03:54:14;23.80;52.10
9446;DHT22;4761;49.490;10.908;2023-07-22T03:56:40;23.80;52.00
9446;DHT22;4761;49.490;10.908;2023-07-22T03:59:06;23.80;52.00
9446;DHT22;4761;49.490;10.908;2023-07-22T04:01:31;23.80;52.00
9446;DHT22;4761;49.490;10.908;2023-07-22T04:03:57;23.80;52.00
9446;DHT22;4761;49.490;10.908;2023-07-22T04:06:22;23.80;52.00
9446;DHT22;4761;49.490;10.908;2023-07-22T04:08:48;23.80;52.00
9446;DHT22;4761;49.490;10.908;2023-07-22T04:11:14;23.80;52.00
9446;DHT22;4761;49.490;10.908;2023-07-22T04:13:40;23.80;52.00
9446;DHT22;4761;49.490;10.908;2023-07-22T04:16:05;23.80;52.00
9446;DHT22;4761;49.490;10.908;2023-07-22T04:18:31;23.80;52.00
9446;DHT22;4761;49.490;10.908;2023-07-22T04:21:00;23.80;52.00
9446;DHT22;4761;49.490;10.908;2023-07-22T04:23:26;23.80;52.00
9446;DHT22;4761;49.490;10.908;2023-07-22T04:25:52;23.80;52.00
9446;DHT22;4761;49.490;10.908;2023-07-22T04:28:17;23.80;52.00
9446;DHT22;4761;49.490;10.908;2023-07-22T04:30:43;23.80;52.00
9446;DHT22;4761;49.490;10.908;2023-07-22T04:33:08;23.80;52.00
9446;DHT22;4761;49.490;10.908;2023-07-22T04:35:41;23.80;52.00
9446;DHT22;4761;49.490;10.908;2023-07-22T04:38:06;23.80;52.00
9446;DHT22;4761;49.490;10.908;2023-07-22T04:40:32;23.80;52.00
9446;DHT22;4761;49.490;10.908;2023-07-22T04:42:57;23.80;52.00
9446;DHT22;4761;49.490;10.908;2023-07-22T04:45:23;23.80;52.00
9446;DHT22;4761;49.490;10.908;2023-07-22T04:47:49;23.80;52.00
9446;DHT22;4761;49.490;10.908;2023-07-22T04:50:16;23.80;52.00
9446;DHT22;4761;49.490;10.908;2023-07-22T04:52:44;23.80;52.00
9446;DHT22;4761;49.490;10.908;2023-07-22T04:55:10;23.80;52.00
9446;DHT22;4761;49.490;10.908;2023-07-22T04:57:37;23.80;52.00
9446;DHT22;4761;49.490;10.908;2023-07-22T05:00:03;23.80;52.00
9446;DHT22;4761;49.490;10.908;2023-07-22T05:02:29;23.80;52.10
9446;DHT22;4761;49.490;10.908;2023-07-22T05:04:56;23.80;52.10
9446;DHT22;4761;49.490;10.908;2023-07-22T05:07:21;23.80;52.10
9446;DHT22;4761;49.490;10.908;2023-07-22T05:09:47;23.80;52.10
9446;DHT22;4761;49.490;10.908;2023-07-22T05:12:12;23.80;52.10
9446;DHT22;4761;49.490;10.908;2023-07-22T05:14:38;23.80;52.10
9446;DHT22;4761;49.490;10.908;2023-07-22T05:17:04;23.80;52.10
9446;DHT22;4761;49.490;10.908;2023-07-22T05:19:29;23.80;52.10
9446;DHT22;4761;49.490;10.908;2023-07-22T05:21:55;23.80;52.10
9446;DHT22;4761;49.490;10.908;2023-07-22T05:24:20;23.80;52.10
9446;DHT22;4761;49.490;10.908;2023-07-22T05:26:46;23.80;52.10
9446;DHT22;4761;49.490;10.908;2023-07-22T05:29:12;23.80;52.10
9446;DHT22;4761;49.490;10.908;2023-07-22T05:31:37;23.80;52.10
9446;DHT22;4761;49.490;10.908;2023-07-22T05:34:03;23.80;52.10
9446;DHT22;4761;49.490;10.908;2023-07-22T05:36:29;23.80;52.10
9446;DHT22;4761;49.490;10.908;2023-07-22T05:38:55;23.80;52.00
9446;DHT22;4761;49.490;10.908;2023-07-22T05:41:20;23.80;52.10
9446;DHT22;4761;49.490;10.908;2023-07-22T05:43:46;23.80;52.10
9446;DHT22;4761;49.490;10.908;2023-07-22T05:46:12;23.80;52.10
9446;DHT22;4761;49.490;10.908;2023-07-22T05:48:37;23.80;52.10
9446;DHT22;4761;49.490;10.908;2023-07-22T05:51:03;23.80;52.10
9446;DHT22;4761;49.490;10.908;2023-07-22T05:53:28;23.80;52.10
9446;DHT22;4761;49.490;10.908;2023-07-22T05:55:54;23.80;52.10
9446;DHT22;4761;49.490;10.908;2023-07-22T05:58:19;23.80;52.10
9446;DHT22;4761;49.490;10.908;2023-07-22T06:00:45;23.80;52.10
9446;DHT22;4761;49.490;10.908;2023-07-22T06:03:12;23.80;52.20
9446;DHT22;4761;49.490;10.908;2023-07-22T06:05:37;23.80;52.20
9446;DHT22;4761;49.490;10.908;2023-07-22T06:08:03;23.80;52.20
9446;DHT22;4761;49.490;10.908;2023-07-22T06:10:29;23.80;52.20
9446;DHT22;4761;49.490;10.908;2023-07-22T06:12:55;23.80;52.30
9446;DHT22;4761;49.490;10.908;2023-07-22T06:15:21;23.70;52.70
9446;DHT22;4761;49.490;10.908;2023-07-22T06:17:46;23.70;52.90
9446;DHT22;4761;49.490;10.908;2023-07-22T06:20:12;23.70;52.90
9446;DHT22;4761;49.490;10.908;2023-07-22T06:22:37;23.80;53.00
9446;DHT22;4761;49.490;10.908;2023-07-22T06:25:04;23.80;53.00
9446;DHT22;4761;49.490;10.908;2023-07-22T06:27:29;23.90;53.00
9446;DHT22;4761;49.490;10.908;2023-07-22T06:29:55;24.00;52.90
9446;DHT22;4761;49.490;10.908;2023-07-22T06:32:22;24.10;52.90
9446;DHT22;4761;49.490;10.908;2023-07-22T06:34:47;24.10;52.70
9446;DHT22;4761;49.490;10.908;2023-07-22T06:37:13;24.20;52.70
9446;DHT22;4761;49.490;10.908;2023-07-22T06:39:38;24.30;52.60
9446;DHT22;4761;49.490;10.908;2023-07-22T06:42:04;24.40;52.50
9446;DHT22;4761;49.490;10.908;2023-07-22T06:44:30;24.40;52.40
9446;DHT22;4761;49.490;10.908;2023-07-22T06:46:55;24.40;52.20
9446;DHT22;4761;49.490;10.908;2023-07-22T06:49:21;24.50;52.10
9446;DHT22;4761;49.490;10.908;2023-07-22T06:51:46;24.50;52.00
9446;DHT22;4761;49.490;10.908;2023-07-22T06:54:12;24.60;51.90
9446;DHT22;4761;49.490;10.908;2023-07-22T06:56:37;24.50;51.70
9446;DHT22;4761;49.490;10.908;2023-07-22T06:59:03;24.60;51.70
9446;DHT22;4761;49.490;10.908;2023-07-22T07:01:28;24.60;51.60
9446;DHT22;4761;49.490;10.908;2023-07-22T07:03:54;24.60;51.50
9446;DHT22;4761;49.490;10.908;2023-07-22T07:06:20;24.70;51.60
9446;DHT22;4761;49.490;10.908;2023-07-22T07:08:45;24.70;52.20
9446;DHT22;4761;49.490;10.908;2023-07-22T07:11:11;24.70;51.50
9446;DHT22;4761;49.490;10.908;2023-07-22T07:13:36;24.70;51.60
9446;DHT22;4761;49.490;10.908;2023-07-22T07:16:23;24.80;51.60
9446;DHT22;4761;49.490;10.908;2023-07-22T07:18:49;24.80;51.70
9446;DHT22;4761;49.490;10.908;2023-07-22T07:21:16;24.80;51.70
9446;DHT22;4761;49.490;10.908;2023-07-22T07:23:41;24.80;51.70
9446;DHT22;4761;49.490;10.908;2023-07-22T07:26:07;24.80;51.80
9446;DHT22;4761;49.490;10.908;2023-07-22T07:28:32;24.80;51.80
9446;DHT22;4761;49.490;10.908;2023-07-22T07:30:58;24.80;51.80
9446;DHT22;4761;49.490;10.908;2023-07-22T07:33:23;24.80;51.80
9446;DHT22;4761;49.490;10.908;2023-07-22T07:35:49;24.80;51.80
9446;DHT22;4761;49.490;10.908;2023-07-22T07:38:15;24.80;52.40
9446;DHT22;4761;49.490;10.908;2023-07-22T07:40:40;24.80;51.80
9446;DHT22;4761;49.490;10.908;2023-07-22T07:43:06;24.90;51.80
9446;DHT22;4761;49.490;10.908;2023-07-22T07:45:31;24.90;51.80
9446;DHT22;4761;49.490;10.908;2023-07-22T07:47:57;24.90;51.70
9446;DHT22;4761;49.490;10.908;2023-07-22T07:50:22;24.90;51.80
9446;DHT22;4761;49.490;10.908;2023-07-22T07:52:48;24.90;51.60
9446;DHT22;4761;49.490;10.908;2023-07-22T07:55:13;24.90;51.60
9446;DHT22;4761;49.490;10.908;2023-07-22T07:57:39;24.90;51.60
9446;DHT22;4761;49.490;10.908;2023-07-22T08:00:05;24.90;51.50
9446;DHT22;4761;49.490;10.908;2023-07-22T08:02:32;24.90;51.50
9446;DHT22;4761;49.490;10.908;2023-07-22T08:04:58;24.90;51.50
9446;DHT22;4761;49.490;10.908;2023-07-22T08:07:23;24.90;51.50
9446;DHT22;4761;49.490;10.908;2023-07-22T08:09:49;24.90;51.50
9446;DHT22;4761;49.490;10.908;2023-07-22T08:12:15;24.90;52.10
9446;DHT22;4761;49.490;10.908;2023-07-22T08:14:40;24.90;51.50
9446;DHT22;4761;49.490;10.908;2023-07-22T08:17:07;24.90;51.60
9446;DHT22;4761;49.490;10.908;2023-07-22T08:19:32;24.90;51.60
9446;DHT22;4761;49.490;10.908;2023-07-22T08:21:58;25.00;51.70
9446;DHT22;4761;49.490;10.908;2023-07-22T08:24:23;24.90;51.70
9446;DHT22;4761;49.490;10.908;2023-07-22T08:26:49;25.00;52.40
9446;DHT22;4761;49.490;10.908;2023-07-22T08:29:14;25.00;51.90
9446;DHT22;4761;49.490;10.908;2023-07-22T08:31:40;25.00;51.90
9446;DHT22;4761;49.490;10.908;2023-07-22T08:34:06;25.00;52.00
9446;DHT22;4761;49.490;10.908;2023-07-22T08:36:31;25.00;52.00
9446;DHT22;4761;49.490;10.908;2023-07-22T08:38:57;25.00;52.00
9446;DHT22;4761;49.490;10.908;2023-07-22T08:41:22;25.00;52.10
9446;DHT22;4761;49.490;10.908;2023-07-22T08:43:51;25.00;52.10
9446;DHT22;4761;49.490;10.908;2023-07-22T08:46:19;25.00;52.10
9446;DHT22;4761;49.490;10.908;2023-07-22T08:48:47;25.10;52.20
9446;DHT22;4761;49.490;10.908;2023-07-22T08:51:16;25.00;52.20
9446;DHT22;4761;49.490;10.908;2023-07-22T08:53:47;25.00;52.20
9446;DHT22;4761;49.490;10.908;2023-07-22T08:56:12;25.00;52.20
9446;DHT22;4761;49.490;10.908;2023-07-22T08:58:39;25.00;52.20
9446;DHT22;4761;49.490;10.908;2023-07-22T09:01:06;25.00;52.10
9446;DHT22;4761;49.490;10.908;2023-07-22T09:03:33;25.00;52.20
9446;DHT22;4761;49.490;10.908;2023-07-22T09:05:58;25.00;52.10
9446;DHT22;4761;49.490;10.908;2023-07-22T09:08:24;24.90;52.10
9446;DHT22;4761;49.490;10.908;2023-07-22T09:10:50;24.80;52.10
9446;DHT22;4761;49.490;10.908;2023-07-22T09:13:17;24.80;52.20
9446;DHT22;4761;49.490;10.908;2023-07-22T09:15:43;24.80;52.10
9446;DHT22;4761;49.490;10.908;2023-07-22T09:18:10;24.80;52.00
9446;DHT22;4761;49.490;10.908;2023-07-22T09:20:36;24.80;51.90
9446;DHT22;4761;49.490;10.908;2023-07-22T09:23:01;24.90;51.80
9446;DHT22;4761;49.490;10.908;2023-07-22T09:25:28;24.90;51.60
9446;DHT22;4761;49.490;10.908;2023-07-22T09:27:58;24.90;51.50
9446;DHT22;4761;49.490;10.908;2023-07-22T09:30:27;25.00;51.40
9446;DHT22;4761;49.490;10.908;2023-07-22T09:32:54;25.00;51.20
9446;DHT22;4761;49.490;10.908;2023-07-22T09:35:20;25.00;51.00
9446;DHT22;4761;49.490;10.908;2023-07-22T09:37:46;25.00;50.80
9446;DHT22;4761;49.490;10.908;2023-07-22T09:42:46;25.00;50.40
9446;DHT22;4761;49.490;10.908;2023-07-22T09:45:12;25.10;50.40
9446;DHT22;4761;49.490;10.908;2023-07-22T09:47:48;25.00;50.20
9446;DHT22;4761;49.490;10.908;2023-07-22T09:50:19;25.10;50.10
9446;DHT22;4761;49.490;10.908;2023-07-22T09:52:49;25.00;49.80
9446;DHT22;4761;49.490;10.908;2023-07-22T09:55:16;25.10;49.70
9446;DHT22;4761;49.490;10.908;2023-07-22T09:57:45;25.10;49.70
9446;DHT22;4761;49.490;10.908;2023-07-22T10:00:15;25.00;49.40
9446;DHT22;4761;49.490;10.908;2023-07-22T10:02:42;25.10;49.30
9446;DHT22;4761;49.490;10.908;2023-07-22T10:05:13;25.10;49.20
9446;DHT22;4761;49.490;10.908;2023-07-22T10:07:52;25.10;49.10
9446;DHT22;4761;49.490;10.908;2023-07-22T10:10:24;25.10;49.00
9446;DHT22;4761;49.490;10.908;2023-07-22T10:12:51;25.10;49.00
9446;DHT22;4761;49.490;10.908;2023-07-22T10:15:18;25.10;49.00
9446;DHT22;4761;49.490;10.908;2023-07-22T10:17:44;25.10;48.90
9446;DHT22;4761;49.490;10.908;2023-07-22T10:20:11;25.10;48.80
9446;DHT22;4761;49.490;10.908;2023-07-22T10:22:44;25.10;48.70
9446;DHT22;4761;49.490;10.908;2023-07-22T10:25:12;25.10;48.60
9446;DHT22;4761;49.490;10.908;2023-07-22T10:27:42;25.10;48.50
9446;DHT22;4761;49.490;10.908;2023-07-22T10:30:09;25.10;48.50
9446;DHT22;4761;49.490;10.908;2023-07-22T10:32:37;25.10;48.50
9446;DHT22;4761;49.490;10.908;2023-07-22T10:35:03;25.10;48.20
9446;DHT22;4761;49.490;10.908;2023-07-22T10:37:31;25.10;48.00
9446;DHT22;4761;49.490;10.908;2023-07-22T10:43:11;25.20;48.10
9446;DHT22;4761;49.490;10.908;2023-07-22T10:45:41;25.20;47.90
9446;DHT22;4761;49.490;10.908;2023-07-22T10:48:12;25.10;47.80
9446;DHT22;4761;49.490;10.908;2023-07-22T10:50:44;25.10;47.70
9446;DHT22;4761;49.490;10.908;2023-07-22T10:53:11;25.10;47.60
9446;DHT22;4761;49.490;10.908;2023-07-22T11:06:52;25.20;47.30
9446;DHT22;4761;49.490;10.908;2023-07-22T11:12:06;25.20;47.20
9446;DHT22;4761;49.490;10.908;2023-07-22T11:14:38;25.20;47.10
9446;DHT22;4761;49.490;10.908;2023-07-22T11:17:05;25.20;46.90
9446;DHT22;4761;49.490;10.908;2023-07-22T11:19:32;25.30;46.90
9446;DHT22;4761;49.490;10.908;2023-07-22T11:21:59;25.20;46.80
9446;DHT22;4761;49.490;10.908;2023-07-22T11:24:25;25.20;47.40
9446;DHT22;4761;49.490;10.908;2023-07-22T11:26:51;25.20;46.80
9446;DHT22;4761;49.490;10.908;2023-07-22T11:29:18;25.30;46.70
9446;DHT22;4761;49.490;10.908;2023-07-22T11:31:45;25.30;46.50
9446;DHT22;4761;49.490;10.908;2023-07-22T11:34:12;25.30;46.40
9446;DHT22;4761;49.490;10.908;2023-07-22T11:36:38;25.30;46.30
9446;DHT22;4761;49.490;10.908;2023-07-22T11:39:09;25.30;46.30
9446;DHT22;4761;49.490;10.908;2023-07-22T11:41:35;25.30;46.50
9446;DHT22;4761;49.490;10.908;2023-07-22T11:44:02;25.30;46.40
9446;DHT22;4761;49.490;10.908;2023-07-22T11:46:28;25.30;46.50
9446;DHT22;4761;49.490;10.908;2023-07-22T11:48:55;25.30;46.60
9446;DHT22;4761;49.490;10.908;2023-07-22T11:51:22;25.30;46.60
9446;DHT22;4761;49.490;10.908;2023-07-22T11:53:48;25.30;46.50
9446;DHT22;4761;49.490;10.908;2023-07-22T11:56:23;25.30;46.50
9446;DHT22;4761;49.490;10.908;2023-07-22T11:58:56;25.30;46.40
9446;DHT22;4761;49.490;10.908;2023-07-22T12:01:22;25.30;46.40
9446;DHT22;4761;49.490;10.908;2023-07-22T12:03:49;25.30;46.40
9446;DHT22;4761;49.490;10.908;2023-07-22T12:06:15;25.30;46.30
9446;DHT22;4761;49.490;10.908;2023-07-22T12:08:48;25.30;46.40
9446;DHT22;4761;49.490;10.908;2023-07-22T12:11:18;25.30;46.40
9446;DHT22;4761;49.490;10.908;2023-07-22T12:13:45;25.30;46.40
9446;DHT22;4761;49.490;10.908;2023-07-22T12:16:12;25.30;46.40
9446;DHT22;4761;49.490;10.908;2023-07-22T12:18:44;25.30;46.60
9446;DHT22;4761;49.490;10.908;2023-07-22T12:21:10;25.30;47.30
9446;DHT22;4761;49.490;10.908;2023-07-22T12:23:37;25.30;46.70
9446;DHT22;4761;49.490;10.908;2023-07-22T12:26:04;25.30;46.90
9446;DHT22;4761;49.490;10.908;2023-07-22T12:28:29;25.20;46.80
9446;DHT22;4761;49.490;10.908;2023-07-22T12:30:55;25.20;47.30
9446;DHT22;4761;49.490;10.908;2023-07-22T12:33:25;25.10;47.30
9446;DHT22;4761;49.490;10.908;2023-07-22T12:35:55;25.10;47.10
9446;DHT22;4761;49.490;10.908;2023-07-22T12:38:21;25.10;47.00
9446;DHT22;4761;49.490;10.908;2023-07-22T12:40:46;25.10;47.00
9446;DHT22;4761;49.490;10.908;2023-07-22T12:43:12;25.20;46.90
9446;DHT22;4761;49.490;10.908;2023-07-22T12:45:37;25.20;46.60
9446;DHT22;4761;49.490;10.908;2023-07-22T12:48:03;25.20;46.70
9446;DHT22;4761;49.490;10.908;2023-07-22T12:50:31;25.20;46.80
9446;DHT22;4761;49.490;10.908;2023-07-22T12:52:57;25.20;46.70
9446;DHT22;4761;49.490;10.908;2023-07-22T12:55:23;25.20;46.50
9446;DHT22;4761;49.490;10.908;2023-07-22T12:57:48;25.30;46.70
9446;DHT22;4761;49.490;10.908;2023-07-22T13:00:14;25.30;46.80
9446;DHT22;4761;49.490;10.908;2023-07-22T13:02:39;25.30;46.70
9446;DHT22;4761;49.490;10.908;2023-07-22T13:05:05;25.40;46.80
9446;DHT22;4761;49.490;10.908;2023-07-22T13:07:31;25.40;47.10
9446;DHT22;4761;49.490;10.908;2023-07-22T13:09:57;25.50;47.00
9446;DHT22;4761;49.490;10.908;2023-07-22T13:12:25;25.50;46.80
9446;DHT22;4761;49.490;10.908;2023-07-22T13:14:51;25.60;46.60
9446;DHT22;4761;49.490;10.908;2023-07-22T13:17:16;25.60;46.40
9446;DHT22;4761;49.490;10.908;2023-07-22T13:19:42;25.60;46.40
9446;DHT22;4761;49.490;10.908;2023-07-22T13:22:07;25.70;46.20
9446;DHT22;4761;49.490;10.908;2023-07-22T13:24:33;25.70;46.40
9446;DHT22;4761;49.490;10.908;2023-07-22T13:26:58;25.70;46.40
9446;DHT22;4761;49.490;10.908;2023-07-22T13:29:24;25.80;46.50
9446;DHT22;4761;49.490;10.908;2023-07-22T13:31:49;25.80;46.40
9446;DHT22;4761;49.490;10.908;2023-07-22T13:34:15;25.80;46.30
9446;DHT22;4761;49.490;10.908;2023-07-22T13:36:40;25.80;46.10
9446;DHT22;4761;49.490;10.908;2023-07-22T13:39:06;25.80;45.90
9446;DHT22;4761;49.490;10.908;2023-07-22T13:41:31;25.90;45.80
9446;DHT22;4761;49.490;10.908;2023-07-22T13:43:57;25.90;45.70
9446;DHT22;4761;49.490;10.908;2023-07-22T13:46:22;25.90;45.70
9446;DHT22;4761;49.490;10.908;2023-07-22T13:48:48;25.90;45.70
9446;DHT22;4761;49.490;10.908;2023-07-22T13:51:14;26.00;46.20
9446;DHT22;4761;49.490;10.908;2023-07-22T13:53:39;26.00;45.70
9446;DHT22;4761;49.490;10.908;2023-07-22T13:56:05;25.90;45.80
9446;DHT22;4761;49.490;10.908;2023-07-22T13:58:30;26.00;45.70
9446;DHT22;4761;49.490;10.908;2023-07-22T14:00:56;26.00;45.60
9446;DHT22;4761;49.490;10.908;2023-07-22T14:03:21;26.00;45.50
9446;DHT22;4761;49.490;10.908;2023-07-22T14:05:47;26.00;45.40
9446;DHT22;4761;49.490;10.908;2023-07-22T14:08:12;26.00;45.30
9446;DHT22;4761;49.490;10.908;2023-07-22T14:10:38;26.10;45.20
9446;DHT22;4761;49.490;10.908;2023-07-22T14:13:03;26.10;45.00
9446;DHT22;4761;49.490;10.908;2023-07-22T14:15:29;26.00;45.00
9446;DHT22;4761;49.490;10.908;2023-07-22T14:17:54;26.00;44.80
9446;DHT22;4761;49.490;10.908;2023-07-22T14:20:20;26.00;44.90
9446;DHT22;4761;49.490;10.908;2023-07-22T14:22:45;25.90;45.20
9446;DHT22;4761;49.490;10.908;2023-07-22T14:25:11;25.90;45.40
9446;DHT22;4761;49.490;10.908;2023-07-22T14:27:40;25.90;45.60
9446;DHT22;4761;49.490;10.908;2023-07-22T14:30:06;25.80;45.90
9446;DHT22;4761;49.490;10.908;2023-07-22T14:32:32;25.80;45.40
9446;DHT22;4761;49.490;10.908;2023-07-22T14:34:57;25.80;45.40
9446;DHT22;4761;49.490;10.908;2023-07-22T14:37:23;25.80;45.30
9446;DHT22;4761;49.490;10.908;2023-07-22T14:39:49;25.80;45.40
9446;DHT22;4761;49.490;10.908;2023-07-22T14:42:14;25.80;45.30
9446;DHT22;4761;49.490;10.908;2023-07-22T14:44:40;25.80;45.10
9446;DHT22;4761;49.490;10.908;2023-07-22T14:47:05;25.80;45.20
9446;DHT22;4761;49.490;10.908;2023-07-22T14:49:31;25.80;45.00
9446;DHT22;4761;49.490;10.908;2023-07-22T14:51:56;25.70;45.30
9446;DHT22;4761;49.490;10.908;2023-07-22T14:54:22;25.70;45.30
9446;DHT22;4761;49.490;10.908;2023-07-22T14:56:48;25.70;45.50
9446;DHT22;4761;49.490;10.908;2023-07-22T14:59:15;25.70;45.40
9446;DHT22;4761;49.490;10.908;2023-07-22T15:01:41;25.70;45.20
9446;DHT22;4761;49.490;10.908;2023-07-22T15:04:07;25.70;45.80
9446;DHT22;4761;49.490;10.908;2023-07-22T15:06:33;25.70;45.10
9446;DHT22;4761;49.490;10.908;2023-07-22T15:09:00;25.70;45.20
9446;DHT22;4761;49.490;10.908;2023-07-22T15:11:26;25.60;45.30
9446;DHT22;4761;49.490;10.908;2023-07-22T15:13:51;25.60;45.60
9446;DHT22;4761;49.490;10.908;2023-07-22T15:16:17;25.60;45.80
9446;DHT22;4761;49.490;10.908;2023-07-22T15:18:42;25.60;45.80
9446;DHT22;4761;49.490;10.908;2023-07-22T15:21:08;25.70;45.80
9446;DHT22;4761;49.490;10.908;2023-07-22T15:23:33;25.60;45.60
9446;DHT22;4761;49.490;10.908;2023-07-22T15:25:59;25.60;45.50
9446;DHT22;4761;49.490;10.908;2023-07-22T15:28:25;25.60;45.40
9446;DHT22;4761;49.490;10.908;2023-07-22T15:30:53;25.60;45.30
9446;DHT22;4761;49.490;10.908;2023-07-22T15:33:18;25.60;45.40
9446;DHT22;4761;49.490;10.908;2023-07-22T15:35:44;25.60;45.30
9446;DHT22;4761;49.490;10.908;2023-07-22T15:38:09;25.60;45.30
9446;DHT22;4761;49.490;10.908;2023-07-22T15:40:35;25.60;45.50
9446;DHT22;4761;49.490;10.908;2023-07-22T15:43:01;25.60;45.60
9446;DHT22;4761;49.490;10.908;2023-07-22T15:45:27;25.50;45.80
9446;DHT22;4761;49.490;10.908;2023-07-22T15:47:52;25.60;45.50
9446;DHT22;4761;49.490;10.908;2023-07-22T15:50:18;25.50;45.90
9446;DHT22;4761;49.490;10.908;2023-07-22T15:52:44;25.60;46.20
9446;DHT22;4761;49.490;10.908;2023-07-22T15:55:09;25.50;46.00
9446;DHT22;4761;49.490;10.908;2023-07-22T15:57:35;25.50;45.50
9446;DHT22;4761;49.490;10.908;2023-07-22T16:00:01;25.50;45.60